sensor_id;sensor_type;location;lat;lon;timestamp;pressure;altitude;pressure_sealevel;temperature
43292;BMP280;28754;47.700;7.924;2023-01-10T00:02:33;91101.78;;;3.95
43292;BMP280;28754;47.700;7.924;2023-01-10T00:05:20;91109.94;;;3.97
43292;BMP280;28754;47.700;7.924;2023-01-10T00:08:07;91118.09;;;3.99
43292;BMP280;28754;47.700;7.924;2023-01-10T00:10:54;91113.78;;;3.99
43292;BMP280;28754;47.700;7.924;2023-01-10T00:13:41;91124.47;;;4.01
43292;BMP280;28754;47.700;7.924;2023-01-10T00:16:28;91127.00;;;4.01
43292;BMP280;28754;47.700;7.924;2023-01-10T00:19:15;91136.56;;;3.99
43292;BMP280;28754;47.700;7.924;2023-01-10T00:22:01;91135.06;;;3.98
43292;BMP280;28754;47.700;7.924;2023-01-10T00:24:54;91135.59;;;4.00
43292;BMP280;28754;47.700;7.924;2023-01-10T00:27:41;91151.00;;;3.99
43292;BMP280;28754;47.700;7.924;2023-01-10T00:30:30;91142.66;;;3.98
43292;BMP280;28754;47.700;7.924;2023-01-10T00:33:19;91145.19;;;3.98
43292;BMP280;28754;47.700;7.924;2023-01-10T00:36:08;91159.84;;;3.96
43292;BMP280;28754;47.700;7.924;2023-01-10T00:38:55;91171.72;;;3.96
43292;BMP280;28754;47.700;7.924;2023-01-10T00:41:42;91176.47;;;3.92
43292;BMP280;28754;47.700;7.924;2023-01-10T00:44:47;91183.50;;;3.90
43292;BMP280;28754;47.700;7.924;2023-01-10T00:47:34;91194.41;;;3.91
43292;BMP280;28754;47.700;7.924;2023-01-10T00:50:21;91190.56;;;3.88
43292;BMP280;28754;47.700;7.924;2023-01-10T00:53:07;91202.88;;;3.85
43292;BMP280;28754;47.700;7.924;2023-01-10T00:55:54;91208.19;;;3.83
43292;BMP280;28754;47.700;7.924;2023-01-10T00:58:41;91218.53;;;3.82
43292;BMP280;28754;47.700;7.924;2023-01-10T01:01:30;91229.66;;;3.81
43292;BMP280;28754;47.700;7.924;2023-01-10T01:04:17;91221.06;;;3.82
43292;BMP280;28754;47.700;7.924;2023-01-10T01:07:04;91230.66;;;3.80
43292;BMP280;28754;47.700;7.924;2023-01-10T01:09:51;91233.63;;;3.77
43292;BMP280;28754;47.700;7.924;2023-01-10T01:13:04;91256.06;;;3.74
43292;BMP280;28754;47.700;7.924;2023-01-10T01:15:51;91275.13;;;3.76
43292;BMP280;28754;47.700;7.924;2023-01-10T01:18:38;91281.19;;;3.75
43292;BMP280;28754;47.700;7.924;2023-01-10T01:21:24;91293.09;;;3.75
43292;BMP280;28754;47.700;7.924;2023-01-10T01:24:14;91302.00;;;3.77
43292;BMP280;28754;47.700;7.924;2023-01-10T01:27:00;91311.38;;;3.76
43292;BMP280;28754;47.700;7.924;2023-01-10T01:29:47;91314.31;;;3.74
43292;BMP280;28754;47.700;7.924;2023-01-10T01:32:34;91320.38;;;3.73
43292;BMP280;28754;47.700;7.924;2023-01-10T01:35:20;91332.28;;;3.72
43292;BMP280;28754;47.700;7.924;2023-01-10T01:38:07;91339.31;;;3.70
43292;BMP280;28754;47.700;7.924;2023-01-10T01:40:54;91358.00;;;3.69
43292;BMP280;28754;47.700;7.924;2023-01-10T01:44:13;91361.75;;;3.67
43292;BMP280;28754;47.700;7.924;2023-01-10T01:47:07;91365.50;;;3.64
43292;BMP280;28754;47.700;7.924;2023-01-10T01:49:58;91374.16;;;3.57
43292;BMP280;28754;47.700;7.924;2023-01-10T01:52:48;91384.72;;;3.54
43292;BMP280;28754;47.700;7.924;2023-01-10T01:55:38;91394.09;;;3.53
43292;BMP280;28754;47.700;7.924;2023-01-10T01:58:43;91398.03;;;3.49
43292;BMP280;28754;47.700;7.924;2023-01-10T02:01:32;91409.38;;;3.47
43292;BMP280;28754;47.700;7.924;2023-01-10T02:04:37;91403.53;;;3.46
43292;BMP280;28754;47.700;7.924;2023-01-10T02:07:33;91389.13;;;3.47
43292;BMP280;28754;47.700;7.924;2023-01-10T02:10:33;91406.84;;;3.47
43292;BMP280;28754;47.700;7.924;2023-01-10T02:13:24;91401.13;;;3.51
43292;BMP280;28754;47.700;7.924;2023-01-10T02:16:13;91405.53;;;3.56
43292;BMP280;28754;47.700;7.924;2023-01-10T02:19:01;91420.84;;;3.61
43292;BMP280;28754;47.700;7.924;2023-01-10T02:28:50;91411.97;;;3.70
43292;BMP280;28754;47.700;7.924;2023-01-10T02:32:23;91449.53;;;3.73
43292;BMP280;28754;47.700;7.924;2023-01-10T02:38:35;91444.78;;;3.76
43292;BMP280;28754;47.700;7.924;2023-01-10T02:42:10;91444.78;;;3.76
43292;BMP280;28754;47.700;7.924;2023-01-10T02:45:25;91454.78;;;3.71
43292;BMP280;28754;47.700;7.924;2023-01-10T02:48:16;91457.31;;;3.71
43292;BMP280;28754;47.700;7.924;2023-01-10T02:51:18;91465.94;;;3.70
43292;BMP280;28754;47.700;7.924;2023-01-10T02:54:15;91472.72;;;3.70
43292;BMP280;28754;47.700;7.924;2023-01-10T03:03:51;91473.63;;;3.75
43292;BMP280;28754;47.700;7.924;2023-01-10T03:06:53;91490.38;;;3.76
43292;BMP280;28754;47.700;7.924;2023-01-10T03:16:27;91502.91;;;3.71
43292;BMP280;28754;47.700;7.924;2023-01-10T03:19:20;91497.84;;;3.71
43292;BMP280;28754;47.700;7.924;2023-01-10T03:22:10;91495.50;;;3.70
43292;BMP280;28754;47.700;7.924;2023-01-10T03:25:00;91490.44;;;3.70
43292;BMP280;28754;47.700;7.924;2023-01-10T03:28:01;91501.47;;;3.64
43292;BMP280;28754;47.700;7.924;2023-01-10T03:33:46;91507.69;;;3.61
43292;BMP280;28754;47.700;7.924;2023-01-10T03:40:15;91524.31;;;3.57
43292;BMP280;28754;47.700;7.924;2023-01-10T03:43:12;91546.53;;;3.55
43292;BMP280;28754;47.700;7.924;2023-01-10T03:47:19;91535.09;;;3.53
43292;BMP280;28754;47.700;7.924;2023-01-10T03:49:42;91549.47;;;3.52
43292;BMP280;28754;47.700;7.924;2023-01-10T03:52:33;91548.72;;;3.52
43292;BMP280;28754;47.700;7.924;2023-01-10T03:55:25;91551.44;;;3.50
43292;BMP280;28754;47.700;7.924;2023-01-10T03:58:12;91559.47;;;3.47
43292;BMP280;28754;47.700;7.924;2023-01-10T04:00:59;91572.25;;;3.52
43292;BMP280;28754;47.700;7.924;2023-01-10T04:03:45;91570.53;;;3.53
43292;BMP280;28754;47.700;7.924;2023-01-10T04:06:32;91584.91;;;3.52
43292;BMP280;28754;47.700;7.924;2023-01-10T04:09:19;91573.13;;;3.46
43292;BMP280;28754;47.700;7.924;2023-01-10T04:12:06;91579.91;;;3.46
43292;BMP280;28754;47.700;7.924;2023-01-10T04:14:52;91580.16;;;3.44
43292;BMP280;28754;47.700;7.924;2023-01-10T04:17:39;91590.03;;;3.46
43292;BMP280;28754;47.700;7.924;2023-01-10T04:20:26;91600.97;;;3.46
43292;BMP280;28754;47.700;7.924;2023-01-10T04:23:12;91591.19;;;3.50
43292;BMP280;28754;47.700;7.924;2023-01-10T04:25:59;91600.09;;;3.52
43292;BMP280;28754;47.700;7.924;2023-01-10T04:28:46;91610.03;;;3.54
43292;BMP280;28754;47.700;7.924;2023-01-10T04:31:33;91628.13;;;3.57
43292;BMP280;28754;47.700;7.924;2023-01-10T04:34:20;91625.34;;;3.59
43292;BMP280;28754;47.700;7.924;2023-01-10T04:37:07;91626.50;;;3.63
43292;BMP280;28754;47.700;7.924;2023-01-10T04:39:53;91627.25;;;3.63
43292;BMP280;28754;47.700;7.924;2023-01-10T04:42:40;91635.03;;;3.68
43292;BMP280;28754;47.700;7.924;2023-01-10T04:45:26;91629.94;;;3.68
43292;BMP280;28754;47.700;7.924;2023-01-10T04:48:13;91638.31;;;3.69
43292;BMP280;28754;47.700;7.924;2023-01-10T04:51:00;91643.59;;;3.67
43292;BMP280;28754;47.700;7.924;2023-01-10T04:53:47;91648.66;;;3.67
43292;BMP280;28754;47.700;7.924;2023-01-10T04:56:34;91657.63;;;3.63
43292;BMP280;28754;47.700;7.924;2023-01-10T04:59:20;91674.03;;;3.61
43292;BMP280;28754;47.700;7.924;2023-01-10T05:02:07;91666.81;;;3.64
43292;BMP280;28754;47.700;7.924;2023-01-10T05:04:54;91662.31;;;3.66
43292;BMP280;28754;47.700;7.924;2023-01-10T05:07:40;91658.22;;;3.65
43292;BMP280;28754;47.700;7.924;2023-01-10T05:10:27;91676.31;;;3.69
43292;BMP280;28754;47.700;7.924;2023-01-10T05:13:14;91684.66;;;3.69
43292;BMP280;28754;47.700;7.924;2023-01-10T05:16:00;91683.13;;;3.68
43292;BMP280;28754;47.700;7.924;2023-01-10T05:18:47;91683.53;;;3.65
43292;BMP280;28754;47.700;7.924;2023-01-10T05:21:34;91694.22;;;3.67
43292;BMP280;28754;47.700;7.924;2023-01-10T05:24:20;91678.63;;;3.70
43292;BMP280;28754;47.700;7.924;2023-01-10T05:27:07;91685.66;;;3.68
43292;BMP280;28754;47.700;7.924;2023-01-10T05:29:54;91690.72;;;3.68
43292;BMP280;28754;47.700;7.924;2023-01-10T05:32:41;91691.88;;;3.72
43292;BMP280;28754;47.700;7.924;2023-01-10T05:35:28;91704.72;;;3.71
43292;BMP280;28754;47.700;7.924;2023-01-10T05:38:14;91673.97;;;3.67
43292;BMP280;28754;47.700;7.924;2023-01-10T05:41:01;91695.78;;;3.68
43292;BMP280;28754;47.700;7.924;2023-01-10T05:43:48;91698.91;;;3.70
43292;BMP280;28754;47.700;7.924;2023-01-10T05:46:35;91697.91;;;3.71
43292;BMP280;28754;47.700;7.924;2023-01-10T05:49:21;91704.72;;;3.71
43292;BMP280;28754;47.700;7.924;2023-01-10T05:52:08;91710.00;;;3.69
43292;BMP280;28754;47.700;7.924;2023-01-10T05:54:55;91715.47;;;3.66
43292;BMP280;28754;47.700;7.924;2023-01-10T05:57:42;91714.91;;;3.64
43292;BMP280;28754;47.700;7.924;2023-01-10T06:00:29;91721.88;;;3.69
43292;BMP280;28754;47.700;7.924;2023-01-10T06:03:17;91721.50;;;3.65
43292;BMP280;28754;47.700;7.924;2023-01-10T06:06:04;91730.25;;;3.69
43292;BMP280;28754;47.700;7.924;2023-01-10T06:08:50;91735.69;;;3.73
43292;BMP280;28754;47.700;7.924;2023-01-10T06:11:37;91729.06;;;3.72
43292;BMP280;28754;47.700;7.924;2023-01-10T06:14:24;91729.84;;;3.72
43292;BMP280;28754;47.700;7.924;2023-01-10T06:17:11;91734.91;;;3.72
43292;BMP280;28754;47.700;7.924;2023-01-10T06:19:58;91736.66;;;3.72
43292;BMP280;28754;47.700;7.924;2023-01-10T06:22:44;91751.06;;;3.71
43292;BMP280;28754;47.700;7.924;2023-01-10T06:25:33;91759.66;;;3.70
43292;BMP280;28754;47.700;7.924;2023-01-10T06:28:22;91777.03;;;3.67
43292;BMP280;28754;47.700;7.924;2023-01-10T06:31:09;91755.81;;;3.61
43292;BMP280;28754;47.700;7.924;2023-01-10T06:33:55;91751.59;;;3.55
43292;BMP280;28754;47.700;7.924;2023-01-10T06:36:42;91764.47;;;3.54
43292;BMP280;28754;47.700;7.924;2023-01-10T06:39:29;91771.88;;;3.55
43292;BMP280;28754;47.700;7.924;2023-01-10T06:42:16;91779.59;;;3.60
43292;BMP280;28754;47.700;7.924;2023-01-10T06:45:03;91763.41;;;3.61
43292;BMP280;28754;47.700;7.924;2023-01-10T06:47:50;91763.22;;;3.63
43292;BMP280;28754;47.700;7.924;2023-01-10T06:50:36;91776.06;;;3.61
43292;BMP280;28754;47.700;7.924;2023-01-10T06:53:23;91776.13;;;3.55
43292;BMP280;28754;47.700;7.924;2023-01-10T06:56:10;91791.13;;;3.56
43292;BMP280;28754;47.700;7.924;2023-01-10T06:58:57;91803.44;;;3.53
43292;BMP280;28754;47.700;7.924;2023-01-10T07:01:44;91807.69;;;3.52
43292;BMP280;28754;47.700;7.924;2023-01-10T07:04:30;91826.22;;;3.53
43292;BMP280;28754;47.700;7.924;2023-01-10T07:07:17;91825.84;;;3.49
43292;BMP280;28754;47.700;7.924;2023-01-10T07:10:04;91818.66;;;3.46
43292;BMP280;28754;47.700;7.924;2023-01-10T07:12:54;91836.94;;;3.48
43292;BMP280;28754;47.700;7.924;2023-01-10T07:15:41;91823.72;;;3.46
43292;BMP280;28754;47.700;7.924;2023-01-10T07:18:27;91830.75;;;3.44
43292;BMP280;28754;47.700;7.924;2023-01-10T07:21:14;91846.72;;;3.45
43292;BMP280;28754;47.700;7.924;2023-01-10T07:24:03;91839.31;;;3.43
43292;BMP280;28754;47.700;7.924;2023-01-10T07:26:53;91856.47;;;3.41
43292;BMP280;28754;47.700;7.924;2023-01-10T07:29:40;91852.38;;;3.41
43292;BMP280;28754;47.700;7.924;2023-01-10T07:32:27;91852.97;;;3.42
43292;BMP280;28754;47.700;7.924;2023-01-10T07:35:13;91855.84;;;3.46
43292;BMP280;28754;47.700;7.924;2023-01-10T07:38:00;91857.75;;;3.50
43292;BMP280;28754;47.700;7.924;2023-01-10T07:40:48;91863.41;;;3.52
43292;BMP280;28754;47.700;7.924;2023-01-10T07:43:35;91863.00;;;3.55
43292;BMP280;28754;47.700;7.924;2023-01-10T07:46:22;91865.69;;;3.60
43292;BMP280;28754;47.700;7.924;2023-01-10T07:49:08;91872.28;;;3.61
43292;BMP280;28754;47.700;7.924;2023-01-10T07:51:55;91910.66;;;3.65
43292;BMP280;28754;47.700;7.924;2023-01-10T07:54:42;91880.84;;;3.67
43292;BMP280;28754;47.700;7.924;2023-01-10T07:57:28;91897.38;;;3.69
43292;BMP280;28754;47.700;7.924;2023-01-10T08:00:16;91879.25;;;3.72
43292;BMP280;28754;47.700;7.924;2023-01-10T08:03:03;91908.66;;;3.73
43292;BMP280;28754;47.700;7.924;2023-01-10T08:06:06;91917.81;;;3.74
43292;BMP280;28754;47.700;7.924;2023-01-10T08:08:55;91907.91;;;3.73
43292;BMP280;28754;47.700;7.924;2023-01-10T08:11:42;91924.44;;;3.75
43292;BMP280;28754;47.700;7.924;2023-01-10T08:14:28;91918.03;;;3.73
43292;BMP280;28754;47.700;7.924;2023-01-10T08:17:16;91911.19;;;3.73
43292;BMP280;28754;47.700;7.924;2023-01-10T08:20:03;91919.22;;;3.70
43292;BMP280;28754;47.700;7.924;2023-01-10T08:22:49;91913.81;;;3.60
43292;BMP280;28754;47.700;7.924;2023-01-10T08:25:36;91913.22;;;3.58
43292;BMP280;28754;47.700;7.924;2023-01-10T08:28:23;91916.94;;;3.56
43292;BMP280;28754;47.700;7.924;2023-01-10T08:31:09;91892.41;;;3.56
43292;BMP280;28754;47.700;7.924;2023-01-10T08:33:56;91902.19;;;3.53
43292;BMP280;28754;47.700;7.924;2023-01-10T08:36:43;91914.84;;;3.53
43292;BMP280;28754;47.700;7.924;2023-01-10T08:39:29;91914.88;;;3.46
43292;BMP280;28754;47.700;7.924;2023-01-10T08:42:16;91923.00;;;3.48
43292;BMP280;28754;47.700;7.924;2023-01-10T08:45:05;91914.41;;;3.56
43292;BMP280;28754;47.700;7.924;2023-01-10T08:47:52;91921.81;;;3.57
43292;BMP280;28754;47.700;7.924;2023-01-10T08:50:39;91912.66;;;3.56
43292;BMP280;28754;47.700;7.924;2023-01-10T08:53:26;91921.44;;;3.54
43292;BMP280;28754;47.700;7.924;2023-01-10T08:56:17;91934.09;;;3.54
43292;BMP280;28754;47.700;7.924;2023-01-10T08:59:03;91942.69;;;3.53
43292;BMP280;28754;47.700;7.924;2023-01-10T09:01:50;91945.38;;;3.58
43292;BMP280;28754;47.700;7.924;2023-01-10T09:04:37;91953.72;;;3.65
43292;BMP280;28754;47.700;7.924;2023-01-10T09:07:23;91960.13;;;3.67
43292;BMP280;28754;47.700;7.924;2023-01-10T09:10:11;91950.78;;;3.61
43292;BMP280;28754;47.700;7.924;2023-01-10T09:12:58;91963.06;;;3.64
43292;BMP280;28754;47.700;7.924;2023-01-10T09:15:46;91964.00;;;3.70
43292;BMP280;28754;47.700;7.924;2023-01-10T09:18:34;91971.78;;;3.75
43292;BMP280;28754;47.700;7.924;2023-01-10T09:21:20;91975.81;;;3.82
43292;BMP280;28754;47.700;7.924;2023-01-10T09:24:07;91985.34;;;3.86
43292;BMP280;28754;47.700;7.924;2023-01-10T09:26:54;91987.84;;;3.93
43292;BMP280;28754;47.700;7.924;2023-01-10T09:29:40;91988.00;;;3.98
43292;BMP280;28754;47.700;7.924;2023-01-10T09:32:27;91997.75;;;4.01
43292;BMP280;28754;47.700;7.924;2023-01-10T09:35:14;91992.09;;;3.99
43292;BMP280;28754;47.700;7.924;2023-01-10T09:38:02;92001.47;;;3.98
43292;BMP280;28754;47.700;7.924;2023-01-10T09:44:20;92008.50;;;3.96
43292;BMP280;28754;47.700;7.924;2023-01-10T09:47:18;92007.31;;;3.99
43292;BMP280;28754;47.700;7.924;2023-01-10T09:50:30;92003.78;;;4.00
43292;BMP280;28754;47.700;7.924;2023-01-10T09:53:22;91999.50;;;4.00
43292;BMP280;28754;47.700;7.924;2023-01-10T09:56:13;92014.91;;;3.99
43292;BMP280;28754;47.700;7.924;2023-01-10T09:59:01;92010.41;;;4.01
43292;BMP280;28754;47.700;7.924;2023-01-10T10:01:54;92014.69;;;4.07
43292;BMP280;28754;47.700;7.924;2023-01-10T10:08:00;91997.44;;;4.21
43292;BMP280;28754;47.700;7.924;2023-01-10T10:11:17;91993.34;;;4.20
43292;BMP280;28754;47.700;7.924;2023-01-10T10:14:33;91998.56;;;4.25
43292;BMP280;28754;47.700;7.924;2023-01-10T10:20:40;92002.25;;;4.29
43292;BMP280;28754;47.700;7.924;2023-01-10T10:23:52;92001.28;;;4.30
43292;BMP280;28754;47.700;7.924;2023-01-10T10:26:56;92004.16;;;4.34
43292;BMP280;28754;47.700;7.924;2023-01-10T10:33:05;92014.66;;;4.37
43292;BMP280;28754;47.700;7.924;2023-01-10T10:36:07;92011.53;;;4.42
43292;BMP280;28754;47.700;7.924;2023-01-10T10:39:00;92015.25;;;4.39
43292;BMP280;28754;47.700;7.924;2023-01-10T10:41:52;92013.69;;;4.38
43292;BMP280;28754;47.700;7.924;2023-01-10T10:44:49;92009.97;;;4.41
43292;BMP280;28754;47.700;7.924;2023-01-10T10:47:39;92009.03;;;4.35
43292;BMP280;28754;47.700;7.924;2023-01-10T10:50:33;91998.50;;;4.32
43292;BMP280;28754;47.700;7.924;2023-01-10T10:53:20;91982.38;;;4.26
43292;BMP280;28754;47.700;7.924;2023-01-10T10:56:13;92003.22;;;4.28
43292;BMP280;28754;47.700;7.924;2023-01-10T10:59:03;92004.56;;;4.31
43292;BMP280;28754;47.700;7.924;2023-01-10T11:01:50;92004.16;;;4.34
43292;BMP280;28754;47.700;7.924;2023-01-10T11:04:37;92005.09;;;4.39
43292;BMP280;28754;47.700;7.924;2023-01-10T11:07:27;92005.88;;;4.40
43292;BMP280;28754;47.700;7.924;2023-01-10T11:10:24;92010.19;;;4.39
43292;BMP280;28754;47.700;7.924;2023-01-10T11:13:42;92011.72;;;4.40
43292;BMP280;28754;47.700;7.924;2023-01-10T11:19:25;92004.91;;;4.41
43292;BMP280;28754;47.700;7.924;2023-01-10T11:22:15;92016.41;;;4.43
43292;BMP280;28754;47.700;7.924;2023-01-10T11:25:02;92003.50;;;4.44
43292;BMP280;28754;47.700;7.924;2023-01-10T11:27:53;92000.97;;;4.44
43292;BMP280;28754;47.700;7.924;2023-01-10T11:30:47;92002.72;;;4.44
43292;BMP280;28754;47.700;7.924;2023-01-10T11:33:35;92011.31;;;4.43
43292;BMP280;28754;47.700;7.924;2023-01-10T11:36:22;92007.22;;;4.42
43292;BMP280;28754;47.700;7.924;2023-01-10T11:39:13;91994.91;;;4.45
43292;BMP280;28754;47.700;7.924;2023-01-10T11:42:29;91987.13;;;4.47
43292;BMP280;28754;47.700;7.924;2023-01-10T11:48:20;91978.84;;;4.58
43292;BMP280;28754;47.700;7.924;2023-01-10T11:51:36;91979.69;;;4.70
43292;BMP280;28754;47.700;7.924;2023-01-10T11:54:27;91981.53;;;4.80
43292;BMP280;28754;47.700;7.924;2023-01-10T11:57:18;91979.19;;;4.85
43292;BMP280;28754;47.700;7.924;2023-01-10T12:00:08;91982.44;;;4.92
43292;BMP280;28754;47.700;7.924;2023-01-10T12:03:33;91968.91;;;4.98
43292;BMP280;28754;47.700;7.924;2023-01-10T12:06:23;91989.16;;;5.05
43292;BMP280;28754;47.700;7.924;2023-01-10T12:09:39;91976.47;;;5.05
43292;BMP280;28754;47.700;7.924;2023-01-10T12:12:32;91956.16;;;5.05
43292;BMP280;28754;47.700;7.924;2023-01-10T12:15:29;91958.69;;;5.05
43292;BMP280;28754;47.700;7.924;2023-01-10T12:18:17;91941.47;;;5.07
43292;BMP280;28754;47.700;7.924;2023-01-10T12:21:06;91946.69;;;5.12
43292;BMP280;28754;47.700;7.924;2023-01-10T12:23:59;91948.81;;;5.14
43292;BMP280;28754;47.700;7.924;2023-01-10T12:26:46;91958.03;;;5.45
43292;BMP280;28754;47.700;7.924;2023-01-10T12:29:44;91944.63;;;6.14
43292;BMP280;28754;47.700;7.924;2023-01-10T12:32:41;91943.06;;;6.01
43292;BMP280;28754;47.700;7.924;2023-01-10T12:35:44;91938.38;;;5.87
43292;BMP280;28754;47.700;7.924;2023-01-10T12:38:41;91935.00;;;5.75
43292;BMP280;28754;47.700;7.924;2023-01-10T12:45:24;91924.09;;;7.40
43292;BMP280;28754;47.700;7.924;2023-01-10T12:48:45;91914.81;;;7.34
43292;BMP280;28754;47.700;7.924;2023-01-10T12:51:35;91927.38;;;6.79
43292;BMP280;28754;47.700;7.924;2023-01-10T12:54:25;91918.50;;;6.36
43292;BMP280;28754;47.700;7.924;2023-01-10T12:57:26;91908.22;;;6.42
43292;BMP280;28754;47.700;7.924;2023-01-10T13:00:39;91904.41;;;7.24
43292;BMP280;28754;47.700;7.924;2023-01-10T13:03:30;91906.28;;;8.22
43292;BMP280;28754;47.700;7.924;2023-01-10T13:06:29;91901.78;;;9.32
43292;BMP280;28754;47.700;7.924;2023-01-10T13:09:26;91901.56;;;9.76
43292;BMP280;28754;47.700;7.924;2023-01-10T13:12:38;91900.19;;;9.90
43292;BMP280;28754;47.700;7.924;2023-01-10T13:15:38;91898.63;;;10.10
43292;BMP280;28754;47.700;7.924;2023-01-10T13:18:29;91887.41;;;10.16
43292;BMP280;28754;47.700;7.924;2023-01-10T13:21:17;91886.03;;;10.03
43292;BMP280;28754;47.700;7.924;2023-01-10T13:24:21;91891.78;;;9.94
43292;BMP280;28754;47.700;7.924;2023-01-10T13:27:19;91878.16;;;9.62
43292;BMP280;28754;47.700;7.924;2023-01-10T13:30:34;91877.88;;;9.43
43292;BMP280;28754;47.700;7.924;2023-01-10T13:33:46;91868.13;;;9.19
43292;BMP280;28754;47.700;7.924;2023-01-10T13:36:49;91863.59;;;9.04
43292;BMP280;28754;47.700;7.924;2023-01-10T13:39:40;91858.66;;;8.60
43292;BMP280;28754;47.700;7.924;2023-01-10T13:42:33;91870.09;;;8.09
43292;BMP280;28754;47.700;7.924;2023-01-10T13:45:39;91874.09;;;7.78
43292;BMP280;28754;47.700;7.924;2023-01-10T13:48:28;91870.09;;;7.54
43292;BMP280;28754;47.700;7.924;2023-01-10T13:51:18;91876.22;;;7.42
43292;BMP280;28754;47.700;7.924;2023-01-10T14:03:54;91859.06;;;6.98
43292;BMP280;28754;47.700;7.924;2023-01-10T14:06:43;91853.75;;;6.88
43292;BMP280;28754;47.700;7.924;2023-01-10T14:09:40;91853.13;;;6.82
43292;BMP280;28754;47.700;7.924;2023-01-10T14:12:51;91855.22;;;6.84
43292;BMP280;28754;47.700;7.924;2023-01-10T14:15:44;91862.41;;;6.87
43292;BMP280;28754;47.700;7.924;2023-01-10T14:18:38;91867.84;;;6.91
43292;BMP280;28754;47.700;7.924;2023-01-10T14:21:29;91860.75;;;6.93
43292;BMP280;28754;47.700;7.924;2023-01-10T14:24:38;91861.84;;;6.97
43292;BMP280;28754;47.700;7.924;2023-01-10T14:27:44;91862.63;;;6.97
43292;BMP280;28754;47.700;7.924;2023-01-10T14:30:32;91862.63;;;6.97
43292;BMP280;28754;47.700;7.924;2023-01-10T14:33:21;91864.94;;;6.99
43292;BMP280;28754;47.700;7.924;2023-01-10T14:36:16;91853.97;;;6.98
43292;BMP280;28754;47.700;7.924;2023-01-10T14:39:05;91853.97;;;6.98
43292;BMP280;28754;47.700;7.924;2023-01-10T14:41:59;91849.34;;;6.95
43292;BMP280;28754;47.700;7.924;2023-01-10T14:45:01;91843.16;;;6.91
43292;BMP280;28754;47.700;7.924;2023-01-10T14:47:51;91838.06;;;6.91
43292;BMP280;28754;47.700;7.924;2023-01-10T14:50:37;91834.19;;;6.89
43292;BMP280;28754;47.700;7.924;2023-01-10T14:53:29;91835.84;;;6.83
43292;BMP280;28754;47.700;7.924;2023-01-10T14:56:39;91834.09;;;6.73
43292;BMP280;28754;47.700;7.924;2023-01-10T14:59:31;91841.19;;;6.71
43292;BMP280;28754;47.700;7.924;2023-01-10T15:02:24;91838.53;;;6.66
43292;BMP280;28754;47.700;7.924;2023-01-10T15:05:20;91826.78;;;6.65
43292;BMP280;28754;47.700;7.924;2023-01-10T15:08:26;91825.72;;;6.61
43292;BMP280;28754;47.700;7.924;2023-01-10T15:11:14;91824.38;;;6.58
43292;BMP280;28754;47.700;7.924;2023-01-10T15:14:05;91828.47;;;6.59
43292;BMP280;28754;47.700;7.924;2023-01-10T15:17:00;91818.19;;;6.54
43292;BMP280;28754;47.700;7.924;2023-01-10T15:19:51;91821.94;;;6.52
43292;BMP280;28754;47.700;7.924;2023-01-10T15:22:38;91817.31;;;6.49
43292;BMP280;28754;47.700;7.924;2023-01-10T15:25:34;91813.66;;;6.45
43292;BMP280;28754;47.700;7.924;2023-01-10T15:28:26;91816.09;;;6.40
43292;BMP280;28754;47.700;7.924;2023-01-10T15:31:15;91803.03;;;6.37
43292;BMP280;28754;47.700;7.924;2023-01-10T15:34:08;91802.72;;;6.33
43292;BMP280;28754;47.700;7.924;2023-01-10T15:36:59;91803.16;;;6.30
43292;BMP280;28754;47.700;7.924;2023-01-10T15:39:46;91799.75;;;6.25
43292;BMP280;28754;47.700;7.924;2023-01-10T15:42:33;91798.06;;;6.19
43292;BMP280;28754;47.700;7.924;2023-01-10T15:45:29;91796.97;;;6.15
43292;BMP280;28754;47.700;7.924;2023-01-10T15:48:39;91795.53;;;6.08
43292;BMP280;28754;47.700;7.924;2023-01-10T15:51:36;91793.41;;;6.05
43292;BMP280;28754;47.700;7.924;2023-01-10T15:57:29;91803.94;;;5.97
43292;BMP280;28754;47.700;7.924;2023-01-10T16:00:18;91807.13;;;5.92
43292;BMP280;28754;47.700;7.924;2023-01-10T16:06:32;91809.53;;;5.76
43292;BMP280;28754;47.700;7.924;2023-01-10T16:09:21;91810.34;;;5.70
43292;BMP280;28754;47.700;7.924;2023-01-10T16:12:35;91806.13;;;5.64
43292;BMP280;28754;47.700;7.924;2023-01-10T16:15:40;91785.16;;;5.57
43292;BMP280;28754;47.700;7.924;2023-01-10T16:18:27;91803.94;;;5.56
43292;BMP280;28754;47.700;7.924;2023-01-10T16:21:14;91810.53;;;5.57
43292;BMP280;28754;47.700;7.924;2023-01-10T16:24:02;91807.03;;;5.58
43292;BMP280;28754;47.700;7.924;2023-01-10T16:26:50;91806.03;;;5.59
43292;BMP280;28754;47.700;7.924;2023-01-10T16:29:36;91812.13;;;5.58
43292;BMP280;28754;47.700;7.924;2023-01-10T16:32:23;91803.94;;;5.56
43292;BMP280;28754;47.700;7.924;2023-01-10T16:35:10;91808.00;;;5.57
43292;BMP280;28754;47.700;7.924;2023-01-10T16:37:57;91812.88;;;5.59
43292;BMP280;28754;47.700;7.924;2023-01-10T16:41:01;91809.78;;;5.57
43292;BMP280;28754;47.700;7.924;2023-01-10T16:44:07;91808.00;;;5.57
43292;BMP280;28754;47.700;7.924;2023-01-10T16:46:54;91805.47;;;5.57
43292;BMP280;28754;47.700;7.924;2023-01-10T16:49:41;91805.47;;;5.57
43292;BMP280;28754;47.700;7.924;2023-01-10T16:52:27;91805.47;;;5.57
43292;BMP280;28754;47.700;7.924;2023-01-10T16:55:17;91808.00;;;5.57
43292;BMP280;28754;47.700;7.924;2023-01-10T16:58:06;91802.94;;;5.57
43292;BMP280;28754;47.700;7.924;2023-01-10T17:00:53;91800.38;;;5.57
43292;BMP280;28754;47.700;7.924;2023-01-10T17:03:40;91790.69;;;5.54
43292;BMP280;28754;47.700;7.924;2023-01-10T17:06:26;91801.25;;;5.51
43292;BMP280;28754;47.700;7.924;2023-01-10T17:09:26;91781.72;;;5.52
43292;BMP280;28754;47.700;7.924;2023-01-10T17:12:17;91790.69;;;5.54
43292;BMP280;28754;47.700;7.924;2023-01-10T17:15:06;91804.34;;;5.53
43292;BMP280;28754;47.700;7.924;2023-01-10T17:17:53;91804.78;;;5.50
43292;BMP280;28754;47.700;7.924;2023-01-10T17:20:40;91786.09;;;5.45
43292;BMP280;28754;47.700;7.924;2023-01-10T17:23:27;91790.41;;;5.45
43292;BMP280;28754;47.700;7.924;2023-01-10T17:26:17;91792.41;;;5.43
43292;BMP280;28754;47.700;7.924;2023-01-10T17:29:04;91784.22;;;5.41
43292;BMP280;28754;47.700;7.924;2023-01-10T17:31:53;91785.44;;;5.38
43292;BMP280;28754;47.700;7.924;2023-01-10T17:34:40;91780.03;;;5.35
43292;BMP280;28754;47.700;7.924;2023-01-10T17:37:26;91775.91;;;5.34
43292;BMP280;28754;47.700;7.924;2023-01-10T17:40:13;91777.50;;;5.35
43292;BMP280;28754;47.700;7.924;2023-01-10T17:43:00;91778.81;;;5.37
43292;BMP280;28754;47.700;7.924;2023-01-10T17:45:49;91771.75;;;5.39
43292;BMP280;28754;47.700;7.924;2023-01-10T17:48:36;91767.84;;;5.37
43292;BMP280;28754;47.700;7.924;2023-01-10T17:51:22;91768.22;;;5.40
43292;BMP280;28754;47.700;7.924;2023-01-10T17:54:10;91767.25;;;5.41